Gulf Shores, AL (36542)

11:56 AM CDT on July 24, 2017 (GMT -0500)
Shady Lagoon | | Change Station

Elev 43 ft 30.25 °N, 87.78 °W | Updated 1 minute ago

Overcast
Overcast
78.8 °F
Feels Like 82 °F
N
1.0
Wind Variable Wind from NE

Today
High -- | Low -- °F
--% Chance of Precip.
Yesterday
High -- | Low -- °F
Precip. -- in
Pressure 30.05 in
Visibility 10.0 miles
Clouds Scattered Clouds 3600 ft
Scattered Clouds 4600 ft
Mostly Cloudy 6000 ft
Heat Index 82 °F
Dew Point 74 °F
Humidity 86%
Rainfall 1.16 in
Snow Depth Not available.
6:04 AM 7:49 PM
New Moon, 2% visible
METAR KJKA 241635Z AUTO 27006KT 10SM -DZ SCT036 SCT046 BKN060 25/25 A3005 RMK AO2 LTG DSNT NW P0001 T02470247
Pressure 30.05 in
Visibility 10.0 miles
Clouds Scattered Clouds 3600 ft
Scattered Clouds 4600 ft
Mostly Cloudy 6000 ft
Heat Index 82 °F
Dew Point 74 °F
Humidity 86%
Rainfall 1.16 in
Snow Depth Not available.
6:04 AM 7:49 PM
New Moon, 2% visible
METAR KJKA 241635Z AUTO 27006KT 10SM -DZ SCT036 SCT046 BKN060 25/25 A3005 RMK AO2 LTG DSNT NW P0001 T02470247

Get Severe Weather Alerts

Thanks for signing up!

Be on the lookout for a verification email in your inbox.

You'll start receiving the daily forecast at 6 AM.

×

10-Day Weather Forecast

Almanac

Astronomy

Jul. 24, 2017 Rise Set
Actual Time
Civil Twilight
Nautical Twilight
Astronomical Twilight
Moon
Length of Visible Light
Length of Day
Tomorrow will be .
, % of the Moon is Illuminated

Today's Extremes

State Highs State Lows

Community

WunderPhotos

Category 6

Welcome to Category 6. This is the collective home for Weather Underground's featured writeups by Dr. Jeff Masters (right), Bob Henson (left), Chris Burt, and other regular contributors.

Nearby

Air Quality

  Air Quality AQ Index Pollutant
Not available.

Snow Depth

Station Depth Elevation

Earthquake Activity

City Distance Mag. Time & Date
Minimum magnitude displayed is 2.5.

Coastal Water Temperatures

Place Temperature

Stations

Nearby Weather Stations

Station Location Temp. Windchill Dew Point Humidity Wind Precip. Elev Updated Type
                   

Watches & Warnings

There are currently no watches in effect.